Point Marion, Pennsylvania
Current Conditions -  °F | °C
As of 6:53 AM on Monday 24 Nov 2014 (Local Time) from KMGW Reporting Station
Broken Clouds Broken Clouds  
Wind Chill: 64°   Ceiling: 6500
Heat Index: 64°   Visibility: 10mi
Dew Point: 46°   Wind: 9mph
Humidity: 52%   Direction: 200°SSW
Pressure: 29.51"   Gusts: NA
Location:  39.74°N, 79.9°W
Report Text: KMGW 241153Z AUTO 20008KT 10SM BKN065 18/08 A2951 RMK AO2 SLP987 70019 T01780078 10183 20161 51013 TSNO
Loading
Personal Weather Stations






























Interactive Weather Map New forecast layout! Learn more

10-Day Weather Forecast

Advertisements
Track Severe Weather on mobile